Aérodrome :
LOGIN :

S'inscrire | Disclaimer

   EN    FR    IT 

 










Légende :    VFR   VFR Marginal   IFR   IFR Intensif   IFR Très Intensif
Visi : 
Plafond : 
>= 8 km
>= 3000ft
5 à 8 km
1000 à 3000 ft
1500m à 5 km
500 à 1000 ft
800 à 1500m
200 à 500 ft
< 800m
< 200 ft
Symboles :   Orages  Brouillard  Fortes neiges  Fortes précipitations  Vent > 20 kt
SIGMETs :   Divers  Orages  Givrage  Turbulence  Onde Orograph.  Cendres Volcan.







- Altitude de l'aérodrome : 124 ft
- Code IATA : RNS
- Voir les cartes d'approche


LFRN - Rennes

DERNIER METAR :
  • 222330Z AUTO 20005KT 9999 SCT027 BKN240 07/05 Q1024 BECMG BKN012

METARs EXPIRÉS :
  • 222300Z AUTO 20006KT 9999 OVC027 09/06 Q1024 NOSIG
  • 222230Z AUTO 21005KT 9999 OVC028 09/06 Q1024 NOSIG
  • 222200Z AUTO 18004KT 9999 OVC029 09/06 Q1024 NOSIG
  • 222130Z AUTO 21005KT 9999 OVC031 08/06 Q1024 NOSIG
  • 222100Z AUTO 23004KT 9999 BKN031 08/05 Q1024 NOSIG

TAF TAF LFRN
Valide du 23 à 00h jusqu'au 24 à 00h UTC


222300Z 2300/2324 20010KT 9999 BKN030
BECMG 2301/2303 BKN012
TEMPO 2303/2305 4000 RA
BECMG 2303/2305 OVC008
TEMPO 2305/2310 3000 DZ BR BKN003
PROB40
TEMPO 2305/2310 1500 DZ BR BKN002
BECMG 2310/2312 BKN012
TEMPO 2310/2324 4000 RADZ BKN005
TEMPO 2312/2316 21015G25KT
PROB30
TEMPO 2316/2324 2000 RADZ BR BKN003
ATIS : +33 2 99 67 72 50
Pas de NOTAMs connus pour ce terrain.



MET'MAP, la Météo Aéronautique d'un coup d'oeil ! - Copyright ORBIFLY Décembre 2007 - Disclaimer

ORBIFLY MET'MAP TEAM :

Programmation & Développement : Alexandra Zaïnal
Conception & Développement : Baudouin d'Aumeries
Co-Programmation & Développement : Marc-Olivier Méhu
Soutien technique & logistique : Manuel Goepfert

Contact : metmap@orbifly.com




SOURCES & CREDITS :

   NOAA